sensor_id;sensor_type;location;lat;lon;timestamp;temperature;humidity
8332;DHT22;4203;48.144;14.118;2022-10-28T13:38:31;26.30;99.90
8332;DHT22;4203;48.144;14.118;2022-10-28T13:41:24;25.10;99.90
8332;DHT22;4203;48.144;14.118;2022-10-28T13:44:24;24.00;99.90
8332;DHT22;4203;48.144;14.118;2022-10-28T13:47:22;23.60;99.90
8332;DHT22;4203;48.144;14.118;2022-10-28T13:56:30;26.10;99.90
8332;DHT22;4203;48.144;14.118;2022-10-28T13:59:01;26.50;99.90
8332;DHT22;4203;48.144;14.118;2022-10-28T14:04:24;26.80;99.90
8332;DHT22;4203;48.144;14.118;2022-10-28T14:07:15;26.70;99.90
8332;DHT22;4203;48.144;14.118;2022-10-28T14:09:45;26.00;99.90
8332;DHT22;4203;48.144;14.118;2022-10-28T14:12:22;25.10;99.90
8332;DHT22;4203;48.144;14.118;2022-10-28T14:15:15;23.90;99.90
8332;DHT22;4203;48.144;14.118;2022-10-28T14:17:47;22.70;99.90
8332;DHT22;4203;48.144;14.118;2022-10-28T14:20:25;21.60;99.90
8332;DHT22;4203;48.144;14.118;2022-10-28T14:22:58;20.60;99.90
8332;DHT22;4203;48.144;14.118;2022-10-28T14:26:00;19.80;99.90
8332;DHT22;4203;48.144;14.118;2022-10-28T14:28:52;19.30;99.90
8332;DHT22;4203;48.144;14.118;2022-10-28T14:31:42;18.80;99.90
8332;DHT22;4203;48.144;14.118;2022-10-28T14:34:43;18.30;99.90
8332;DHT22;4203;48.144;14.118;2022-10-28T14:37:37;17.90;99.90
8332;DHT22;4203;48.144;14.118;2022-10-28T14:40:30;17.70;99.90
8332;DHT22;4203;48.144;14.118;2022-10-28T14:43:07;17.40;99.90
8332;DHT22;4203;48.144;14.118;2022-10-28T14:45:48;17.10;99.90
8332;DHT22;4203;48.144;14.118;2022-10-28T14:48:33;16.90;99.90
8332;DHT22;4203;48.144;14.118;2022-10-28T14:51:08;16.60;99.90
8332;DHT22;4203;48.144;14.118;2022-10-28T14:56:58;16.10;99.90
8332;DHT22;4203;48.144;14.118;2022-10-28T14:59:27;15.80;99.90
8332;DHT22;4203;48.144;14.118;2022-10-28T15:02:10;15.70;99.90
8332;DHT22;4203;48.144;14.118;2022-10-28T15:04:38;15.60;99.90
8332;DHT22;4203;48.144;14.118;2022-10-28T15:07:10;15.50;99.90
8332;DHT22;4203;48.144;14.118;2022-10-28T15:09:38;15.40;99.90
8332;DHT22;4203;48.144;14.118;2022-10-28T15:12:09;15.20;99.90
8332;DHT22;4203;48.144;14.118;2022-10-28T15:18:01;14.90;99.90
8332;DHT22;4203;48.144;14.118;2022-10-28T15:20:30;14.80;99.90
8332;DHT22;4203;48.144;14.118;2022-10-28T15:23:11;14.60;99.90
8332;DHT22;4203;48.144;14.118;2022-10-28T15:25:38;14.60;99.90
8332;DHT22;4203;48.144;14.118;2022-10-28T15:28:09;14.40;99.90
8332;DHT22;4203;48.144;14.118;2022-10-28T15:30:38;14.30;99.90
8332;DHT22;4203;48.144;14.118;2022-10-28T15:33:25;14.20;99.90
8332;DHT22;4203;48.144;14.118;2022-10-28T15:36:06;14.00;99.90
8332;DHT22;4203;48.144;14.118;2022-10-28T15:38:37;13.80;99.90
